Ainsworth, NE

8:47 PM CDT on September 18, 2014 (GMT -0500)
Ainsworth Municipal | Change Station
CLOSE
Current Station
Airport
Location: Ainsworth,
Elevation: 2589 ft
Nearby Weather Stations

Elev 2589 ft 42.58 °N, 99.99 °W | Updated 12 minutes ago

Clear
Clear
66 °F
Feels Like 66 °F
N
8
Wind Variable Wind from South

Today
High -- | Low -- °F
--% Chance of Precip.
Yesterday
High -- | Low -- °F
Precip. -- in
7:22 AM 7:43 PM
Waning Crescent, 23% visible
Pressure 29.85 in
Visibility 10.0 miles
Clouds Clear
Dew Point 61 °F
Humidity 84%
Rainfall 0.00 in
Snow Depth Not available.
UV 0 out of 12
Pollen 5.30 out of 12
Air Quality Not available.
Flu Activity Not available.
METAR KANW 190135Z AUTO 18007KT 10SM CLR 19/16 A2985 RMK AO2 T01870159

More Conditions Fewer Conditions

Pressure 29.85 in
Visibility 10.0 miles
Clouds Clear
Dew Point 61 °F
Humidity 84%
Rainfall 0.00 in
Snow Depth Not available.
UV 0 out of 12
Pollen 5.30 out of 12
Air Quality Not available.
Flu Activity Not available.
METAR KANW 190135Z AUTO 18007KT 10SM CLR 19/16 A2985 RMK AO2 T01870159

More Conditions Fewer Conditions

10-Day Weather Forecast

Almanac

Astronomy

Sep. 18, 2014 Rise Set
Actual Time 7:22 AM CDT 7:43 PM CDT
Civil Twilight 6:54 AM CDT 8:11 PM CDT
Nautical Twilight 6:21 AM CDT 8:45 PM CDT
Astronomical Twilight 5:47 AM CDT 9:18 PM CDT
Moon 2:11 AM CDT (9/18) 4:40 PM CDT (9/18)
Length of Visible Light 13h 17m
Length of Day
12h 21m
Tomorrow will be 2m 51s shorter.
Waning Crescent, 23% of the Moon is Illuminated
Today
Waning Crescent
Sep 24
New
Oct 1
First Quarter
Oct 8
Full
Oct 15
Last Quarter

Today's Extremes

State Highs State Lows

Community

WunderPhotos

Upload Photos

1,754,529 photos uploaded!

Nearby

Snow Depth

Station Depth Elevation
No new snow has been reported.

Earthquake Activity

City Distance Mag. Time & Date
No recent earthquake activity has been reported nearby.
Minimum magnitude displayed is 2.5.

Coastal Water Temperatures

Place Temperature
No Stations Reporting

Nearby Weather Stations